Time;durP1;ratioP1;P1;durP2;ratioP2;P2;SDS_P1;SDS_P2;PMS_P1;PMS_P2;Temp;Humidity;BMP_temperature;BMP_pressure;BME280_temperature;BME280_humidity;BME280_pressure;Samples;Min_cycle;Max_cycle;Signal;HPM_P1;HPM_P2
2022/07/11 00:00:07;;;;;;;1.02;0.90;;;;;;;13.02;97.51;101185.70;1688435;83;21081;-89
2022/07/11 00:02:37;;;;;;;2.60;0.80;;;;;;;13.01;97.32;101180.86;1692069;82;21088;-85
2022/07/11 00:05:05;;;;;;;2.50;0.98;;;;;;;13.01;97.25;101179.54;1681513;85;21030;-88
2022/07/11 00:07:33;;;;;;;2.80;1.00;;;;;;;12.98;96.90;101177.25;1678505;85;21709;-85
2022/07/11 00:10:00;;;;;;;2.08;1.00;;;;;;;13.01;97.03;101177.33;1675788;84;21103;-84
2022/07/11 00:12:27;;;;;;;5.35;0.80;;;;;;;12.97;96.95;101167.12;1675720;83;21077;-89
2022/07/11 00:14:55;;;;;;;1.52;0.88;;;;;;;13.01;96.91;101176.90;1677049;83;21859;-83
2022/07/11 00:17:23;;;;;;;7.62;0.98;;;;;;;13.03;96.82;101177.81;1669615;83;21096;-86
2022/07/11 00:19:50;;;;;;;2.08;0.98;;;;;;;13.04;96.75;101177.38;1665556;85;21097;-86
2022/07/11 00:22:18;;;;;;;3.02;0.78;;;;;;;13.07;96.68;101175.25;1664900;83;21154;-83
2022/07/11 00:25:31;;;;;;;0.75;0.70;;;;;;;13.05;96.42;101173.02;1665839;84;21124;-87
2022/07/11 00:27:59;;;;;;;2.87;0.80;;;;;;;13.08;96.37;101171.73;1658857;83;21801;-83
2022/07/11 00:30:27;;;;;;;1.22;0.80;;;;;;;13.09;96.04;101169.13;1666227;85;21077;-84
2022/07/11 00:32:55;;;;;;;2.10;0.70;;;;;;;13.10;95.75;101164.32;1650036;85;22638;-84
2022/07/11 00:35:22;;;;;;;2.60;0.90;;;;;;;13.10;95.30;101167.38;1671888;83;21607;-83
2022/07/11 00:37:52;;;;;;;3.35;1.10;;;;;;;13.07;94.61;101163.36;1667069;83;21058;-83
2022/07/11 00:40:23;;;;;;;4.53;1.00;;;;;;;13.08;94.26;101165.13;1666510;83;21911;-84
2022/07/11 00:42:51;;;;;;;1.05;0.68;;;;;;;13.06;93.73;101163.77;1666534;83;21077;-87
2022/07/11 00:45:18;;;;;;;2.52;0.80;;;;;;;13.08;93.51;101157.20;1673286;85;21060;-83
2022/07/11 00:47:45;;;;;;;2.15;0.75;;;;;;;13.09;93.09;101160.32;1670175;83;21300;-87
2022/07/11 00:50:13;;;;;;;0.80;0.70;;;;;;;13.03;92.50;101164.61;1675844;83;21097;-83
2022/07/11 00:52:41;;;;;;;1.65;0.80;;;;;;;12.95;92.08;101160.91;1666477;83;21924;-83
2022/07/11 00:55:09;;;;;;;1.12;0.70;;;;;;;12.90;92.00;101154.63;1676742;85;21631;-87
2022/07/11 00:57:36;;;;;;;1.35;0.70;;;;;;;12.86;91.78;101151.87;1693031;83;21551;-83
2022/07/11 01:00:05;;;;;;;2.08;0.70;;;;;;;12.81;91.49;101153.10;1678626;83;21150;-86
2022/07/11 01:02:32;;;;;;;1.27;0.80;;;;;;;12.76;91.32;101157.38;1675662;83;21153;-86
2022/07/11 01:05:00;;;;;;;2.75;0.80;;;;;;;12.67;91.07;101149.25;1679002;83;22592;-83
2022/07/11 01:07:30;;;;;;;1.75;0.80;;;;;;;12.59;91.01;101149.99;1671391;85;21023;-86
2022/07/11 01:09:58;;;;;;;3.90;1.55;;;;;;;12.55;91.03;101149.87;1671992;83;21100;-83
2022/07/11 01:12:25;;;;;;;1.85;0.80;;;;;;;12.51;91.00;101142.73;1666402;83;21090;-83
2022/07/11 01:14:56;;;;;;;1.47;0.98;;;;;;;12.49;90.94;101146.66;1666532;84;21061;-83
2022/07/11 01:17:24;;;;;;;5.37;0.98;;;;;;;12.43;90.79;101139.48;1673098;83;21896;-85
2022/07/11 01:19:51;;;;;;;3.72;0.90;;;;;;;12.40;90.72;101140.72;1678272;83;21905;-85
2022/07/11 01:22:21;;;;;;;3.58;1.17;;;;;;;12.40;90.82;101139.39;1680237;83;21130;-88
2022/07/11 01:24:48;;;;;;;5.22;0.85;;;;;;;12.39;90.85;101138.95;1688464;83;21148;-83
2022/07/11 01:27:16;;;;;;;0.88;0.68;;;;;;;12.38;90.57;101137.16;1691674;83;22242;-83
2022/07/11 01:29:43;;;;;;;0.80;0.60;;;;;;;12.34;90.45;101135.30;1685324;83;21732;-83
2022/07/11 01:32:10;;;;;;;1.90;0.85;;;;;;;12.30;90.34;101136.52;1685113;83;21673;-86
2022/07/11 01:34:38;;;;;;;1.65;0.80;;;;;;;12.25;90.33;101137.28;1661258;84;21438;-82
2022/07/11 01:37:05;;;;;;;5.92;0.90;;;;;;;12.22;90.34;101135.91;1679797;84;21562;-83
2022/07/11 01:39:33;;;;;;;2.45;0.78;;;;;;;12.18;90.33;101134.05;1697828;83;21097;-83
2022/07/11 01:42:00;;;;;;;2.12;0.85;;;;;;;12.18;90.27;101137.09;1688584;83;22027;-89
2022/07/11 01:44:28;;;;;;;1.45;0.80;;;;;;;12.16;90.23;101137.09;1679630;83;21036;-88
2022/07/11 01:46:55;;;;;;;2.08;0.80;;;;;;;12.20;90.29;101133.66;1676404;84;21022;-90
2022/07/11 01:49:22;;;;;;;2.92;1.50;;;;;;;12.23;90.29;101133.72;1679305;83;21050;-88
2022/07/11 01:51:50;;;;;;;2.95;0.65;;;;;;;12.24;90.18;101130.23;1680150;83;21030;-85
2022/07/11 01:54:17;;;;;;;0.60;0.60;;;;;;;12.21;89.90;101129.27;1693227;83;21856;-89
2022/07/11 01:56:45;;;;;;;1.95;0.90;;;;;;;12.21;89.92;101128.83;1679627;84;21595;-89
2022/07/11 01:59:12;;;;;;;1.45;0.95;;;;;;;12.21;89.79;101123.98;1687053;83;21790;-85
2022/07/11 02:01:44;;;;;;;3.50;0.90;;;;;;;12.18;89.75;101132.73;1699440;83;21090;-88
2022/07/11 02:04:10;;;;;;;0.80;0.80;;;;;;;12.16;89.69;101126.94;1689297;83;21114;-88
2022/07/11 02:06:37;;;;;;;6.83;2.00;;;;;;;12.14;89.70;101129.97;1698799;84;21863;-89
2022/07/11 02:09:04;;;;;;;1.35;0.80;;;;;;;12.14;89.67;101129.97;1676736;84;21130;-86
2022/07/11 02:11:36;;;;;;;1.00;0.82;;;;;;;12.12;89.67;101133.88;1690079;84;21081;-91
2022/07/11 02:14:03;;;;;;;2.58;1.00;;;;;;;12.12;89.69;101140.48;1680003;83;21156;-89
2022/07/11 02:16:31;;;;;;;6.65;1.07;;;;;;;12.10;89.64;101143.51;1688762;83;21670;-85
2022/07/11 02:18:58;;;;;;;4.33;1.10;;;;;;;12.08;89.64;101147.86;1695913;83;21776;-90
2022/07/11 02:21:26;;;;;;;2.40;1.00;;;;;;;12.10;89.76;101146.58;1678257;83;21606;-89
2022/07/11 02:23:55;;;;;;;1.67;1.10;;;;;;;12.09;89.65;101155.34;1677170;84;21153;-85
2022/07/11 02:26:22;;;;;;;1.47;0.70;;;;;;;12.10;89.71;101154.50;1679826;83;21153;-92
2022/07/11 02:28:50;;;;;;;1.80;0.88;;;;;;;12.10;89.70;101152.73;1656926;83;21154;-90
2022/07/11 02:31:17;;;;;;;3.95;1.50;;;;;;;12.10;89.68;101158.02;1683942;83;21831;-89
2022/07/11 02:33:45;;;;;;;2.00;0.80;;;;;;;12.12;89.73;101148.39;1685625;84;21113;-84
2022/07/11 02:36:12;;;;;;;2.17;0.82;;;;;;;12.15;89.79;101153.77;1692271;84;21070;-88
2022/07/11 02:38:40;;;;;;;2.42;1.10;;;;;;;12.17;89.67;101148.52;1679534;83;21101;-88
2022/07/11 02:41:07;;;;;;;2.25;0.90;;;;;;;12.20;89.66;101151.22;1694543;83;21086;-85
2022/07/11 02:43:35;;;;;;;2.87;0.93;;;;;;;12.27;89.82;101153.59;1708489;83;21782;-88
2022/07/11 02:46:02;;;;;;;2.27;0.80;;;;;;;12.33;89.74;101151.09;1687063;83;21097;-84
2022/07/11 02:48:30;;;;;;;3.17;1.50;;;;;;;12.37;89.62;101146.35;1679249;83;21097;-83
2022/07/11 02:50:58;;;;;;;1.82;0.98;;;;;;;12.39;89.52;101149.95;1679926;83;21049;-87
2022/07/11 02:53:25;;;;;;;4.28;0.82;;;;;;;12.40;89.36;101142.48;1679698;84;21657;-89
2022/07/11 02:55:52;;;;;;;6.03;1.00;;;;;;;12.44;89.27;101141.69;1679501;83;22398;-84
2022/07/11 02:58:22;;;;;;;2.25;1.10;;;;;;;12.45;89.09;101148.33;1652494;85;21117;-83
2022/07/11 03:00:49;;;;;;;1.47;0.80;;;;;;;12.43;88.94;101150.48;1676035;83;21624;-83
2022/07/11 03:03:16;;;;;;;4.03;1.82;;;;;;;12.44;88.95;101149.61;1678812;83;21292;-86
2022/07/11 03:05:44;;;;;;;2.50;0.93;;;;;;;12.43;88.84;101139.48;1673764;83;21088;-89
2022/07/11 03:08:11;;;;;;;3.08;1.00;;;;;;;12.44;88.74;101141.69;1680351;83;21733;-84
2022/07/11 03:10:39;;;;;;;2.42;1.00;;;;;;;12.45;88.79;101136.88;1679888;84;21042;-85
2022/07/11 03:13:06;;;;;;;2.60;1.00;;;;;;;12.48;88.77;101137.38;1678129;85;21078;-84
2022/07/11 03:15:34;;;;;;;2.40;0.90;;;;;;;12.47;88.64;101140.89;1679671;84;21097;-84
2022/07/11 03:18:01;;;;;;;1.25;0.85;;;;;;;12.49;88.67;101146.66;1679940;83;21108;-84
2022/07/11 03:20:30;;;;;;;3.95;0.95;;;;;;;12.50;88.63;101153.73;1692591;83;21787;-90
2022/07/11 03:22:57;;;;;;;3.45;0.93;;;;;;;12.54;88.64;101159.98;1685481;83;22171;-90
2022/07/11 03:25:25;;;;;;;3.80;0.90;;;;;;;12.60;88.78;101165.40;1714300;83;21116;-84
2022/07/11 03:27:52;;;;;;;3.90;1.00;;;;;;;12.67;88.78;101168.66;1679718;83;21046;-84
2022/07/11 03:30:20;;;;;;;2.58;1.80;;;;;;;12.73;88.76;101167.47;1655827;85;21078;-89
2022/07/11 03:32:47;;;;;;;4.62;2.33;;;;;;;12.80;88.76;101172.44;1676739;83;21878;-87
2022/07/11 03:38:03;;;;;;;2.02;1.27;;;;;;;12.97;88.70;101171.49;1699165;84;21039;-89
2022/07/11 03:40:30;;;;;;;3.25;1.10;;;;;;;13.07;88.57;101173.49;1686178;83;21089;-85
2022/07/11 03:42:58;;;;;;;5.72;1.55;;;;;;;13.16;88.45;101171.05;1697854;83;21086;-84
2022/07/11 03:45:26;;;;;;;2.90;1.55;;;;;;;13.24;88.37;101181.78;1698350;83;21791;-84
2022/07/11 03:47:53;;;;;;;2.72;2.00;;;;;;;13.31;88.19;101181.53;1681784;84;21149;-84
2022/07/11 03:50:21;;;;;;;2.70;1.30;;;;;;;13.35;87.99;101182.05;1689211;84;21239;-84
2022/07/11 03:52:48;;;;;;;3.37;1.50;;;;;;;13.38;87.75;101183.00;1683781;83;21069;-89
2022/07/11 03:55:16;;;;;;;3.50;1.47;;;;;;;13.43;87.67;101185.73;1687767;84;21078;-90
2022/07/11 03:57:49;;;;;;;3.20;1.55;;;;;;;13.50;87.64;101182.79;1698924;83;21866;-90
2022/07/11 04:00:16;;;;;;;3.52;1.50;;;;;;;13.54;87.45;101180.66;1680261;82;21524;-89
2022/07/11 04:02:46;;;;;;;1.47;0.82;;;;;;;13.56;87.21;101172.32;1686186;83;21543;-89
2022/07/11 04:05:14;;;;;;;2.72;1.37;;;;;;;13.57;87.20;101172.77;1692529;83;21110;-84
2022/07/11 04:07:42;;;;;;;4.97;1.35;;;;;;;13.62;87.18;101173.75;1690308;84;21348;-84
2022/07/11 04:10:10;;;;;;;2.55;1.87;;;;;;;13.64;87.14;101169.82;1697390;83;21869;-83
2022/07/11 04:12:38;;;;;;;5.75;1.62;;;;;;;13.68;87.12;101171.22;1679713;84;21085;-84
2022/07/11 04:15:06;;;;;;;3.35;1.35;;;;;;;13.69;87.06;101171.69;1691529;84;21098;-84
2022/07/11 04:17:34;;;;;;;2.62;1.20;;;;;;;13.74;86.99;101175.33;1698186;83;21145;-84
2022/07/11 04:20:02;;;;;;;4.70;2.55;;;;;;;13.78;86.91;101180.24;1698186;84;21093;-84
2022/07/11 04:22:30;;;;;;;3.67;2.25;;;;;;;13.79;86.71;101177.63;1697574;84;21823;-83
2022/07/11 04:24:57;;;;;;;3.55;1.65;;;;;;;13.80;86.72;101179.84;1698759;84;21110;-84
2022/07/11 04:27:25;;;;;;;2.20;1.15;;;;;;;13.85;86.69;101174.61;1695957;84;21082;-88
2022/07/11 04:29:55;;;;;;;2.60;1.50;;;;;;;13.91;86.66;101178.72;1687244;83;21086;-89
2022/07/11 04:32:22;;;;;;;2.80;1.40;;;;;;;13.96;86.52;101183.64;1683632;84;21103;-88
2022/07/11 04:34:51;;;;;;;3.47;1.75;;;;;;;14.00;86.41;101184.15;1690341;84;21206;-88
2022/07/11 04:37:19;;;;;;;2.47;1.65;;;;;;;14.03;86.26;101181.57;1681748;84;21078;-88
2022/07/11 04:39:47;;;;;;;4.85;3.45;;;;;;;14.10;86.24;101180.82;1698165;83;21071;-84
2022/07/11 04:42:15;;;;;;;4.28;2.87;;;;;;;14.18;86.24;101171.68;1689934;84;21641;-88
2022/07/11 04:44:42;;;;;;;2.67;1.20;;;;;;;14.29;86.09;101176.72;1684059;84;21149;-84
2022/07/11 04:47:09;;;;;;;6.47;1.60;;;;;;;14.38;85.92;101178.64;1688726;83;21862;-88
2022/07/11 04:49:39;;;;;;;3.65;1.95;;;;;;;14.48;85.82;101181.88;1671397;84;21095;-87
2022/07/11 04:52:07;;;;;;;1.32;0.88;;;;;;;14.56;85.60;101172.31;1675981;84;21066;-84
2022/07/11 04:54:35;;;;;;;3.35;1.10;;;;;;;14.65;85.23;101189.24;1689190;84;21629;-89
2022/07/11 04:57:02;;;;;;;2.17;1.30;;;;;;;14.74;85.26;101186.73;1690809;84;21081;-89
2022/07/11 04:59:29;;;;;;;3.55;1.07;;;;;;;14.84;85.12;101197.03;1681311;83;21831;-84
2022/07/11 05:01:56;;;;;;;2.70;1.47;;;;;;;14.94;84.86;101193.63;1692676;84;21743;-84
2022/07/11 05:04:24;;;;;;;3.75;2.08;;;;;;;15.06;84.77;101196.91;1692064;83;21107;-88
2022/07/11 05:06:55;;;;;;;3.77;1.52;;;;;;;15.19;84.59;101190.02;1690662;84;21648;-84
2022/07/11 05:09:22;;;;;;;1.30;0.88;;;;;;;15.30;84.24;101199.00;1692436;84;21051;-84
2022/07/11 05:11:51;;;;;;;3.30;1.35;;;;;;;15.43;84.08;101205.33;1683020;84;21066;-84
2022/07/11 05:14:22;;;;;;;2.98;1.12;;;;;;;15.57;83.92;101204.19;1691354;83;21077;-89
2022/07/11 05:16:49;;;;;;;2.92;1.55;;;;;;;15.69;83.60;101210.53;1689244;83;21116;-84
2022/07/11 05:19:17;;;;;;;2.10;1.00;;;;;;;15.80;83.34;101209.77;1686765;84;21105;-84
2022/07/11 05:21:44;;;;;;;4.17;1.15;;;;;;;15.83;83.01;101212.48;1689718;83;21147;-84
2022/07/11 05:24:19;;;;;;;2.20;1.22;;;;;;;15.87;82.83;101207.64;1680425;84;21090;-84
2022/07/11 05:27:00;;;;;;;3.60;1.30;;;;;;;15.91;82.65;101212.98;1688829;83;21082;-83
2022/07/11 05:29:27;;;;;;;2.90;1.12;;;;;;;16.01;82.53;101219.31;1693564;83;21062;-83
2022/07/11 05:31:55;;;;;;;2.58;1.47;;;;;;;16.08;82.34;101226.44;1684671;84;21580;-88
2022/07/11 05:34:22;;;;;;;2.15;1.40;;;;;;;16.16;82.23;101228.28;1691381;84;21766;-88
2022/07/11 05:36:52;;;;;;;3.95;1.95;;;;;;;16.37;82.53;101223.19;1680870;84;21599;-88
2022/07/11 05:39:19;;;;;;;2.72;1.20;;;;;;;16.87;82.69;101215.16;1688165;83;21163;-83
2022/07/11 05:41:47;;;;;;;2.92;1.65;;;;;;;17.59;82.17;101214.20;1694719;84;21450;-83
2022/07/11 05:44:18;;;;;;;2.62;1.62;;;;;;;17.64;80.11;101222.20;1694536;83;21117;-84
2022/07/11 05:46:46;;;;;;;1.98;1.30;;;;;;;17.52;79.12;101220.39;1691042;83;21126;-85
2022/07/11 05:49:13;;;;;;;1.77;1.10;;;;;;;17.33;78.46;101222.08;1690790;83;21853;-85
2022/07/11 05:51:42;;;;;;;1.35;0.95;;;;;;;17.18;78.40;101227.33;1694044;84;21051;-88
2022/07/11 05:54:09;;;;;;;2.25;1.17;;;;;;;17.08;78.23;101226.40;1678844;84;21559;-85
2022/07/11 05:56:36;;;;;;;2.42;1.30;;;;;;;17.01;78.05;101235.21;1678794;84;21086;-92
2022/07/11 05:59:05;;;;;;;4.60;1.85;;;;;;;16.87;77.49;101241.34;1687005;83;21096;-88
2022/07/11 06:01:32;;;;;;;3.75;1.50;;;;;;;16.65;77.45;101240.24;1693691;82;21632;-83
2022/07/11 06:04:00;;;;;;;2.42;1.50;;;;;;;16.54;77.59;101247.69;1690376;83;21105;-83
2022/07/11 06:06:27;;;;;;;2.83;1.20;;;;;;;16.37;77.54;101253.73;1695070;83;21134;-86
2022/07/11 06:08:57;;;;;;;3.92;1.12;;;;;;;16.19;77.39;101264.18;1690144;84;21129;-87
2022/07/11 06:15:42;;;;;;;3.58;1.60;;;;;;;16.03;77.90;101258.72;1694536;84;21317;-92
2022/07/11 06:18:15;;;;;;;1.32;0.90;;;;;;;16.10;78.11;101267.20;1696789;82;21051;-90
2022/07/11 06:20:43;;;;;;;2.42;0.72;;;;;;;16.22;78.00;101272.19;1710926;83;21154;-94
2022/07/11 06:23:35;;;;;;;1.57;0.70;;;;;;;16.35;78.17;101274.50;1699573;83;21117;-93
2022/07/11 06:26:15;;;;;;;1.10;0.78;;;;;;;16.36;78.18;101253.72;1682079;84;21031;-93
2022/07/11 06:28:42;;;;;;;2.15;0.80;;;;;;;16.54;77.85;101272.48;1682074;84;21773;-88
2022/07/11 06:31:16;;;;;;;2.33;0.75;;;;;;;16.58;77.07;101276.95;1693263;83;21060;-94
2022/07/11 06:33:43;;;;;;;2.87;2.45;;;;;;;16.43;76.98;101279.47;1688349;83;21095;-89
2022/07/11 06:36:10;;;;;;;1.90;1.30;;;;;;;16.43;76.98;101285.67;1683902;83;21794;-86
2022/07/11 06:38:38;;;;;;;2.90;2.02;;;;;;;16.42;77.06;101288.30;1694066;84;21102;-89
2022/07/11 06:41:09;;;;;;;5.05;1.72;;;;;;;16.45;77.02;101288.34;1695569;83;21748;-90
2022/07/11 06:43:41;;;;;;;4.97;1.43;;;;;;;16.47;77.08;101291.91;1616877;87;21082;-93
2022/07/11 06:46:17;;;;;;;1.35;0.93;;;;;;;16.70;77.42;101280.14;1669075;83;21489;-90
2022/07/11 06:49:34;;;;;;;3.60;1.90;;;;;;;16.99;77.38;101282.19;1685096;84;21093;-94
2022/07/11 06:52:08;;;;;;;3.15;0.98;;;;;;;17.24;76.97;101277.45;1679517;84;21074;-92
2022/07/11 06:54:34;;;;;;;1.93;1.30;;;;;;;17.41;76.90;101274.89;1689902;84;21760;-82
2022/07/11 06:57:02;;;;;;;4.05;1.02;;;;;;;17.66;76.70;101275.00;1692339;84;21802;-83
2022/07/11 06:59:38;;;;;;;2.37;1.50;;;;;;;17.96;76.65;101274.28;1695902;84;21090;-91
2022/07/11 07:02:11;;;;;;;3.50;1.00;;;;;;;18.14;76.10;101277.87;1698213;84;21074;-87
2022/07/11 07:04:39;;;;;;;4.00;1.57;;;;;;;18.35;75.54;101276.56;1693058;84;21134;-84
2022/07/11 07:07:12;;;;;;;2.12;1.00;;;;;;;18.50;75.16;101286.35;1686842;84;21797;-89
2022/07/11 07:09:41;;;;;;;3.00;1.40;;;;;;;18.58;75.21;101281.02;1692288;83;21584;-86
2022/07/11 07:12:08;;;;;;;4.15;1.40;;;;;;;18.67;74.59;101280.15;1686011;84;21161;-82
2022/07/11 07:14:35;;;;;;;2.05;1.02;;;;;;;18.75;74.50;101274.36;1679882;84;21106;-87
2022/07/11 07:17:03;;;;;;;2.55;1.00;;;;;;;18.95;74.54;101274.39;1693089;84;21090;-90
2022/07/11 07:19:31;;;;;;;1.47;1.10;;;;;;;19.12;74.42;101255.68;1695329;83;21872;-86
2022/07/11 07:21:58;;;;;;;2.05;0.90;;;;;;;19.43;73.45;101269.84;1679041;84;21783;-87
2022/07/11 07:24:26;;;;;;;1.52;0.93;;;;;;;19.54;72.76;101270.69;1693084;84;21102;-89
2022/07/11 07:26:54;;;;;;;3.00;1.92;;;;;;;19.48;72.27;101269.36;1690927;84;22018;-88
2022/07/11 07:29:21;;;;;;;2.10;1.02;;;;;;;19.49;71.80;101265.80;1689003;84;21119;-87
2022/07/11 07:31:49;;;;;;;2.20;1.00;;;;;;;19.58;71.97;101272.91;1698542;83;21772;-86
2022/07/11 07:34:15;;;;;;;1.75;0.65;;;;;;;19.72;70.15;101270.16;1685490;84;21134;-87
2022/07/11 07:36:42;;;;;;;2.35;0.80;;;;;;;19.72;70.15;101270.16;1689837;84;21115;-88
2022/07/11 07:39:11;;;;;;;3.72;1.70;;;;;;;19.90;70.72;101275.46;1625703;86;21599;-85
2022/07/11 07:41:37;;;;;;;1.30;1.02;;;;;;;19.88;69.82;101277.70;1627314;86;21093;-87
2022/07/11 07:44:04;;;;;;;2.47;1.35;;;;;;;19.88;69.82;101277.70;1683818;84;22579;-86
2022/07/11 07:46:36;;;;;;;1.72;1.10;;;;;;;19.69;69.73;101271.50;1681623;83;21063;-86
2022/07/11 07:49:02;;;;;;;0.90;0.70;;;;;;;19.66;69.59;101275.55;1691012;84;21087;-85
2022/07/11 07:51:41;;;;;;;4.35;3.95;;;;;;;19.66;70.00;101276.88;1691355;84;38526;-89
2022/07/11 07:54:08;;;;;;;5.15;1.65;;;;;;;19.72;69.75;101283.09;1688552;84;21078;-84
2022/07/11 07:56:38;;;;;;;3.52;1.50;;;;;;;19.97;70.11;101281.64;1686957;84;23042;-83
2022/07/11 07:59:05;;;;;;;1.32;0.90;;;;;;;20.50;69.58;101248.33;1689179;84;21094;-85
2022/07/11 08:01:37;;;;;;;5.00;2.87;;;;;;;20.50;69.58;101248.33;1650230;84;21031;-86
2022/07/11 08:04:05;;;;;;;2.58;0.93;;;;;;;20.87;68.63;101274.81;1692152;83;21646;-88
2022/07/11 08:06:33;;;;;;;3.55;1.07;;;;;;;20.73;66.74;101272.70;1692550;83;21352;-85
2022/07/11 08:09:04;;;;;;;0.55;0.42;;;;;;;20.73;66.74;101272.70;1686145;84;21078;-85
2022/07/11 08:11:32;;;;;;;1.27;0.60;;;;;;;20.58;66.66;101260.30;1691884;84;21439;-85
2022/07/11 08:13:59;;;;;;;0.90;0.80;;;;;;;20.43;66.53;101263.10;1689577;84;21113;-84
2022/07/11 08:16:26;;;;;;;1.35;0.65;;;;;;;20.38;66.50;101285.42;1648008;86;21089;-86
2022/07/11 08:19:01;;;;;;;2.75;1.47;;;;;;;20.41;67.43;101288.51;1644351;86;21117;-85
2022/07/11 08:21:28;;;;;;;1.55;0.90;;;;;;;20.54;66.91;101283.51;1649483;84;21934;-87
2022/07/11 08:23:56;;;;;;;2.15;1.82;;;;;;;20.08;66.15;101269.11;1643938;86;21100;-84
2022/07/11 08:26:23;;;;;;;2.62;1.02;;;;;;;20.08;66.15;101269.11;1647639;85;21102;-87
2022/07/11 08:28:52;;;;;;;4.03;1.52;;;;;;;19.64;65.22;101296.91;1649621;85;21133;-83
2022/07/11 08:31:18;;;;;;;1.40;1.05;;;;;;;19.64;65.22;101296.91;1649484;86;21105;-84
2022/07/11 08:33:46;;;;;;;1.80;0.80;;;;;;;19.44;65.91;101295.63;1643033;86;21785;-86
2022/07/11 08:36:13;;;;;;;1.52;0.93;;;;;;;19.36;65.81;101295.66;1648772;85;21121;-85
2022/07/11 08:38:43;;;;;;;6.10;1.00;;;;;;;19.32;66.20;101296.55;1648279;86;21063;-85
2022/07/11 08:41:10;;;;;;;1.35;0.68;;;;;;;19.66;67.25;101294.23;1647787;86;21110;-86
2022/07/11 08:43:37;;;;;;;1.98;0.50;;;;;;;20.04;66.97;101295.41;1640372;85;21121;-87
2022/07/11 08:46:04;;;;;;;0.98;0.50;;;;;;;20.15;64.85;101283.33;1640968;86;21755;-85
2022/07/11 08:48:31;;;;;;;1.95;0.60;;;;;;;20.24;65.40;101288.63;1647176;85;21157;-85
2022/07/11 08:50:58;;;;;;;1.95;0.70;;;;;;;20.47;65.03;101283.11;1598855;87;21095;-85
2022/07/11 08:53:24;;;;;;;1.57;0.70;;;;;;;20.79;65.22;101279.32;1591562;86;21370;-87
2022/07/11 08:55:51;;;;;;;1.05;0.53;;;;;;;20.91;64.49;101282.33;1635333;87;21126;-88
2022/07/11 08:58:18;;;;;;;3.20;1.07;;;;;;;20.94;63.90;101287.20;1635902;87;21746;-88
2022/07/11 09:00:45;;;;;;;3.00;0.93;;;;;;;20.84;62.94;101283.31;1626398;86;21079;-89
2022/07/11 09:03:14;;;;;;;2.90;1.67;;;;;;;20.79;62.83;101284.67;1635114;87;21083;-87
2022/07/11 09:05:41;;;;;;;0.60;0.50;;;;;;;20.68;62.47;101280.74;1620094;87;21209;-86
2022/07/11 09:08:08;;;;;;;4.37;2.10;;;;;;;20.45;62.13;101261.30;1631921;87;21571;-85
2022/07/11 09:10:38;;;;;;;1.80;0.70;;;;;;;20.36;62.60;101276.95;1632670;85;21948;-90
2022/07/11 09:13:10;;;;;;;1.87;1.00;;;;;;;20.10;61.44;101283.38;1616619;87;21176;-87
2022/07/11 09:15:40;;;;;;;2.75;0.55;;;;;;;20.10;61.44;101283.38;1610221;86;21157;-86
2022/07/11 09:18:36;;;;;;;2.83;2.10;;;;;;;20.07;61.47;101290.52;1625030;85;21110;-86
2022/07/11 09:26:50;;;;;;;0.95;0.80;;;;;;;20.23;60.80;101290.84;1638024;86;21062;-88
2022/07/11 09:29:24;;;;;;;1.00;0.53;;;;;;;20.35;60.54;101302.81;1640529;86;21115;-88
2022/07/11 09:31:51;;;;;;;2.12;1.02;;;;;;;20.27;59.76;101282.36;1627655;87;21558;-86
2022/07/11 09:34:23;;;;;;;0.55;0.45;;;;;;;20.52;60.25;101298.68;1678783;84;21042;-87
2022/07/11 09:36:54;;;;;;;0.80;0.42;;;;;;;20.79;59.94;101295.38;1671001;84;21728;-85
2022/07/11 09:39:23;;;;;;;1.42;0.65;;;;;;;21.01;60.01;101289.84;1687521;83;21576;-85
2022/07/11 09:41:51;;;;;;;2.42;0.68;;;;;;;21.15;58.96;101292.83;1687514;84;21693;-86
2022/07/11 09:44:33;;;;;;;2.37;0.65;;;;;;;21.19;58.95;101292.77;1690264;83;21094;-87
2022/07/11 09:47:00;;;;;;;1.10;0.50;;;;;;;21.26;59.09;101296.70;1671339;85;21110;-87
2022/07/11 09:49:35;;;;;;;2.92;0.60;;;;;;;21.41;59.11;101294.77;1686409;84;21302;-90
2022/07/11 09:52:14;;;;;;;1.90;0.90;;;;;;;21.39;58.89;101297.47;1671940;85;21126;-86
2022/07/11 09:54:54;;;;;;;1.65;0.68;;;;;;;21.35;58.10;101299.75;1679013;84;21104;-91
2022/07/11 09:57:33;;;;;;;1.60;0.40;;;;;;;21.25;57.82;101294.07;1680252;84;21063;-87
2022/07/11 10:00:01;;;;;;;2.65;0.55;;;;;;;21.19;57.66;101288.75;1673020;84;21066;-84
2022/07/11 10:02:28;;;;;;;1.22;0.40;;;;;;;20.99;57.22;101293.87;1688406;84;21767;-88
2022/07/11 10:04:55;;;;;;;4.62;1.45;;;;;;;20.70;57.46;101297.70;1682225;84;21059;-87
2022/07/11 10:07:33;;;;;;;1.32;0.50;;;;;;;20.54;57.59;101295.54;1675518;84;21070;-89
2022/07/11 10:10:02;;;;;;;0.60;0.60;;;;;;;20.50;57.70;101302.28;1676983;83;21078;-86
2022/07/11 10:12:31;;;;;;;1.52;0.70;;;;;;;20.34;57.45;101302.81;1648358;86;21110;-88
2022/07/11 10:15:01;;;;;;;2.15;0.30;;;;;;;20.32;57.32;101310.84;1648066;86;21779;-89
2022/07/11 10:17:45;;;;;;;0.95;0.42;;;;;;;20.16;56.48;101313.19;1649135;86;21102;-87
2022/07/11 10:20:28;;;;;;;0.45;0.25;;;;;;;19.96;56.76;101315.50;1623456;87;21130;-87
2022/07/11 10:23:00;;;;;;;0.72;0.70;;;;;;;19.78;56.63;101304.47;1679448;84;21623;-87
2022/07/11 10:25:35;;;;;;;0.47;0.47;;;;;;;19.70;57.17;101308.02;1692321;84;21059;-85
2022/07/11 10:28:25;;;;;;;0.95;0.45;;;;;;;19.70;57.30;101313.36;1691736;84;21952;-86
2022/07/11 10:30:59;;;;;;;2.20;0.28;;;;;;;19.82;57.86;101313.36;1699685;84;21097;-89
2022/07/11 10:33:25;;;;;;;0.37;0.30;;;;;;;20.13;57.39;101317.20;1703961;83;21654;-87
2022/07/11 10:35:53;;;;;;;0.45;0.30;;;;;;;20.44;57.24;101309.89;1689338;84;21074;-89
2022/07/11 10:38:20;;;;;;;0.57;0.42;;;;;;;20.76;56.81;101313.69;1689541;84;21116;-90
2022/07/11 10:40:53;;;;;;;0.70;0.53;;;;;;;20.95;56.50;101305.05;1690184;84;21749;-90
2022/07/11 10:43:33;;;;;;;0.68;0.42;;;;;;;21.21;55.68;101313.29;1679737;84;21100;-88
2022/07/11 10:46:09;;;;;;;0.28;0.23;;;;;;;21.24;54.75;101316.38;1696460;83;22224;-90
2022/07/11 10:49:01;;;;;;;2.77;0.35;;;;;;;21.16;55.07;101321.35;1693224;84;21071;-90
2022/07/11 10:51:55;;;;;;;3.72;0.90;;;;;;;20.95;54.52;101325.13;1686834;84;21170;-89
2022/07/11 10:54:46;;;;;;;1.17;0.60;;;;;;;20.84;55.32;101329.67;1686490;84;21767;-87
2022/07/11 10:57:23;;;;;;;1.90;0.40;;;;;;;20.92;55.30;101329.15;1704079;83;21228;-87
2022/07/11 11:00:05;;;;;;;2.05;0.78;;;;;;;20.82;54.94;101324.79;1700121;83;21150;-84
2022/07/11 11:02:58;;;;;;;1.98;0.40;;;;;;;20.93;55.54;101305.52;1675841;84;21100;-88
2022/07/11 11:05:55;;;;;;;3.37;0.50;;;;;;;21.42;55.74;101324.22;1678437;84;21094;-87
2022/07/11 11:08:43;;;;;;;1.42;0.60;;;;;;;21.54;55.26;101323.22;1699474;83;21702;-90
2022/07/11 11:11:35;;;;;;;5.25;0.62;;;;;;;21.23;55.25;101319.52;1704235;84;21558;-88
2022/07/11 11:14:19;;;;;;;2.17;0.85;;;;;;;20.88;55.80;101319.84;1682900;83;21058;-90
2022/07/11 11:16:46;;;;;;;4.08;1.40;;;;;;;20.68;56.17;101340.93;1634155;86;21415;-87
2022/07/11 11:19:50;;;;;;;2.72;1.12;;;;;;;20.68;56.17;101340.93;1692779;84;21560;-87
2022/07/11 11:22:19;;;;;;;2.35;1.12;;;;;;;20.39;56.15;101323.27;1688955;83;22708;-88
2022/07/11 11:24:47;;;;;;;3.20;1.20;;;;;;;20.27;56.67;101354.11;1693202;84;21595;-88
2022/07/11 11:27:18;;;;;;;4.60;2.45;;;;;;;20.24;57.11;101355.45;1696789;84;21332;-87
2022/07/11 11:29:45;;;;;;;4.40;1.57;;;;;;;20.28;57.33;101356.33;1688188;84;21114;-86
2022/07/11 11:32:14;;;;;;;3.40;1.75;;;;;;;20.43;57.72;101354.89;1688650;84;21032;-87
2022/07/11 11:34:46;;;;;;;3.33;1.20;;;;;;;20.77;57.93;101352.91;1666685;84;23258;-89
2022/07/11 11:37:19;;;;;;;4.22;2.20;;;;;;;21.16;57.56;101359.29;1682531;84;22315;-90
2022/07/11 11:39:46;;;;;;;3.27;2.80;;;;;;;21.39;57.02;101360.86;1675963;84;21039;-92
2022/07/11 11:42:20;;;;;;;1.02;0.78;;;;;;;21.01;56.47;101352.28;1693868;84;21098;-90
2022/07/11 11:44:56;;;;;;;1.80;0.80;;;;;;;21.01;56.47;101352.28;1669081;84;21666;-91
2022/07/11 11:47:44;;;;;;;;;;;;;;;;;;;;;
2022/07/11 11:50:18;;;;;;;1.77;1.62;;;;;;;20.72;56.87;101364.53;1693563;83;21067;-88
2022/07/11 11:52:45;;;;;;;0.45;0.45;;;;;;;20.91;57.06;101352.81;1694710;83;21588;-88